createdAt,value
2022-12-29T00:03:54.977Z,10.44
2022-12-29T00:07:59.724Z,10.42
2022-12-29T00:12:03.576Z,10.53
2022-12-29T00:16:08.406Z,10.53
2022-12-29T00:20:29.245Z,10.35
2022-12-29T00:24:52.158Z,10.18
2022-12-29T00:29:13.293Z,10.05
2022-12-29T00:33:37.472Z,9.90
2022-12-29T00:38:07.328Z,9.78
2022-12-29T00:42:39.621Z,9.84
2022-12-29T00:46:44.089Z,9.91
2022-12-29T00:50:46.257Z,9.91
2022-12-29T00:54:48.529Z,9.96
2022-12-29T00:58:50.978Z,10.05
2022-12-29T01:02:53.398Z,10.06
2022-12-29T01:06:55.986Z,10.11
2022-12-29T01:11:06.422Z,10.07
2022-12-29T01:15:11.115Z,10.18
2022-12-29T01:19:14.516Z,10.25
2022-12-29T01:23:17.173Z,10.28
2022-12-29T01:27:21.107Z,10.19
2022-12-29T01:31:23.344Z,10.15
2022-12-29T01:35:26.860Z,10.17
2022-12-29T01:39:29.016Z,10.18
2022-12-29T01:43:40.620Z,10.21
2022-12-29T01:47:45.229Z,10.16
2022-12-29T01:51:59.099Z,10.21
2022-12-29T01:56:07.666Z,10.12
2022-12-29T02:00:13.441Z,10.13
2022-12-29T02:04:16.693Z,10.12
2022-12-29T02:08:24.832Z,10.05
2022-12-29T02:12:27.148Z,10.11
2022-12-29T02:17:08.195Z,10.06
2022-12-29T02:21:56.334Z,10.10
2022-12-29T02:26:32.680Z,10.09
2022-12-29T02:30:38.402Z,10.14
2022-12-29T02:34:49.058Z,10.15
2022-12-29T02:39:26.645Z,10.19
2022-12-29T02:43:40.835Z,10.16
2022-12-29T02:47:54.196Z,10.20
2022-12-29T02:52:23.271Z,9.93
2022-12-29T02:56:26.244Z,9.77
2022-12-29T03:00:29.890Z,9.46
2022-12-29T03:05:16.224Z,9.57
2022-12-29T03:09:51.906Z,9.24
2022-12-29T03:14:25.493Z,9.25
2022-12-29T03:18:42.998Z,9.28
2022-12-29T03:22:49.340Z,9.17
2022-12-29T03:27:00.438Z,9.20
2022-12-29T03:31:09.183Z,9.17
2022-12-29T03:35:15.490Z,9.24
2022-12-29T03:39:21.765Z,9.22
2022-12-29T03:43:24.844Z,9.16
2022-12-29T03:47:27.117Z,9.22
2022-12-29T03:51:29.489Z,9.23
2022-12-29T03:55:32.742Z,9.23
2022-12-29T03:59:36.413Z,9.25
2022-12-29T04:03:38.720Z,9.22
2022-12-29T04:07:41.041Z,9.38
2022-12-29T04:11:43.608Z,9.36
2022-12-29T04:15:46.413Z,9.54
2022-12-29T04:19:49.804Z,9.46
2022-12-29T04:23:52.550Z,9.41
2022-12-29T04:27:54.884Z,9.48
2022-12-29T04:32:15.442Z,9.50
2022-12-29T04:36:29.743Z,9.54
2022-12-29T04:40:32.620Z,9.61
2022-12-29T04:44:37.619Z,9.69
2022-12-29T04:49:05.710Z,9.56
2022-12-29T04:53:28.349Z,9.62
2022-12-29T04:57:30.875Z,9.67
2022-12-29T05:01:35.357Z,9.77
2022-12-29T05:05:37.795Z,9.70
2022-12-29T05:09:40.403Z,9.78
2022-12-29T05:13:42.634Z,9.64
2022-12-29T05:17:45.002Z,9.58
2022-12-29T05:21:47.738Z,9.73
2022-12-29T05:25:49.949Z,9.64
2022-12-29T05:30:20.498Z,9.70
2022-12-29T05:34:23.587Z,9.76
2022-12-29T05:38:26.067Z,9.74
2022-12-29T05:42:28.397Z,9.69
2022-12-29T05:46:49.314Z,9.77
2022-12-29T05:50:55.952Z,9.79
2022-12-29T05:55:08.218Z,9.77
2022-12-29T05:59:12.269Z,9.70
2022-12-29T06:03:15.372Z,9.74
2022-12-29T06:07:19.415Z,9.68
2022-12-29T06:11:23.587Z,9.71
2022-12-29T06:20:01.593Z,9.80
2022-12-29T06:24:04.391Z,9.86
2022-12-29T06:28:06.988Z,9.84
2022-12-29T06:32:10.792Z,9.84
2022-12-29T06:36:17.747Z,9.79
2022-12-29T06:40:21.526Z,9.48
2022-12-29T06:44:42.925Z,9.62
2022-12-29T06:48:45.814Z,9.63
2022-12-29T06:52:48.036Z,9.65
2022-12-29T06:56:50.139Z,9.40
2022-12-29T07:00:52.824Z,9.62
2022-12-29T07:04:55.103Z,9.78
2022-12-29T07:08:58.679Z,9.90
2022-12-29T07:13:00.965Z,9.99
2022-12-29T07:17:06.512Z,10.09
2022-12-29T07:21:08.941Z,10.16
2022-12-29T07:25:11.300Z,10.32
2022-12-29T07:29:13.464Z,10.45
2022-12-29T07:33:15.646Z,10.42
2022-12-29T07:37:17.970Z,10.42
2022-12-29T07:41:20.326Z,10.67
2022-12-29T07:45:22.605Z,10.84
2022-12-29T07:49:38.348Z,10.67
2022-12-29T07:53:40.498Z,10.79
2022-12-29T07:57:42.734Z,11.06
2022-12-29T08:01:45.008Z,11.30
2022-12-29T08:05:47.401Z,11.30
2022-12-29T08:09:49.568Z,11.21
2022-12-29T08:13:52.010Z,11.48
2022-12-29T08:17:54.273Z,11.65
2022-12-29T08:21:57.814Z,11.83
2022-12-29T08:26:01.585Z,12.01
2022-12-29T08:30:04.936Z,12.09
2022-12-29T08:34:10.353Z,11.78
2022-12-29T08:38:13.263Z,12.11
2022-12-29T08:42:15.727Z,12.29
2022-12-29T08:46:18.331Z,12.43
2022-12-29T08:50:21.771Z,12.16
2022-12-29T08:54:24.744Z,11.96
2022-12-29T08:58:28.180Z,11.71
2022-12-29T09:02:30.645Z,11.69
2022-12-29T09:06:39.680Z,11.71
2022-12-29T09:10:42.339Z,11.66
2022-12-29T09:14:45.348Z,11.66
2022-12-29T09:18:47.745Z,11.79
2022-12-29T09:22:50.759Z,11.65
2022-12-29T09:26:53.439Z,12.14
2022-12-29T09:30:56.454Z,12.25
2022-12-29T09:34:58.794Z,12.36
2022-12-29T09:39:00.989Z,12.15
2022-12-29T09:43:28.689Z,12.09
2022-12-29T09:47:33.158Z,12.35
2022-12-29T09:51:39.331Z,12.47
2022-12-29T09:55:52.176Z,12.73
2022-12-29T10:00:06.479Z,12.99
2022-12-29T10:04:18.504Z,12.92
2022-12-29T10:09:28.553Z,12.93
2022-12-29T10:14:22.759Z,13.30
2022-12-29T10:19:18.998Z,13.57
2022-12-29T10:23:53.258Z,13.69
2022-12-29T10:28:10.314Z,13.80
2022-12-29T10:32:35.841Z,13.71
2022-12-29T10:36:50.103Z,13.95
2022-12-29T10:41:27.824Z,13.52
2022-12-29T10:45:41.074Z,13.84
2022-12-29T10:49:56.525Z,13.88
2022-12-29T10:54:32.649Z,13.76
2022-12-29T10:58:50.235Z,14.25
2022-12-29T11:03:47.468Z,14.09
2022-12-29T11:12:43.157Z,14.71
2022-12-29T11:17:07.187Z,14.87
2022-12-29T11:21:47.379Z,14.59
2022-12-29T11:26:22.182Z,14.87
2022-12-29T11:30:45.371Z,15.19
2022-12-29T11:34:54.400Z,15.50
2022-12-29T11:39:15.324Z,15.54
2022-12-29T11:43:55.061Z,15.54
2022-12-29T11:48:32.169Z,15.68
2022-12-29T11:52:40.844Z,15.83
2022-12-29T11:56:56.075Z,16.06
2022-12-29T12:01:30.917Z,16.07
2022-12-29T12:06:08.263Z,15.98
2022-12-29T12:10:32.791Z,15.91
2022-12-29T12:15:07.056Z,15.76
2022-12-29T12:19:59.489Z,15.59
2022-12-29T12:24:42.856Z,15.51
2022-12-29T12:29:16.105Z,15.54
2022-12-29T12:33:48.933Z,15.72
2022-12-29T12:43:14.910Z,15.91
2022-12-29T12:47:54.101Z,16.03
2022-12-29T12:52:35.499Z,15.97
2022-12-29T12:57:21.048Z,15.87
2022-12-29T13:02:05.351Z,16.04
2022-12-29T13:06:51.221Z,15.91
2022-12-29T13:11:27.943Z,15.69
2022-12-29T13:15:57.316Z,15.52
2022-12-29T13:20:27.513Z,15.39
2022-12-29T13:25:08.853Z,15.17
2022-12-29T13:29:33.269Z,15.14
2022-12-29T13:34:05.452Z,15.03
2022-12-29T13:43:23.643Z,15.22
2022-12-29T13:47:47.801Z,15.17
2022-12-29T13:52:02.396Z,15.08
2022-12-29T13:56:32.829Z,15.04
2022-12-29T14:01:04.341Z,14.99
2022-12-29T14:05:23.965Z,15.06
2022-12-29T14:09:59.040Z,15.31
2022-12-29T14:14:28.062Z,15.44
2022-12-29T14:18:35.762Z,15.43
2022-12-29T14:23:17.228Z,15.50
2022-12-29T14:27:23.381Z,15.31
2022-12-29T14:31:36.516Z,15.53
2022-12-29T14:35:49.790Z,15.61
2022-12-29T14:40:24.448Z,15.86
2022-12-29T14:49:04.326Z,15.91
2022-12-29T14:53:35.264Z,15.80
2022-12-29T14:58:01.258Z,15.63
2022-12-29T15:02:26.370Z,15.42
2022-12-29T15:06:41.623Z,15.38
2022-12-29T15:11:01.750Z,15.35
2022-12-29T15:15:22.690Z,15.35
2022-12-29T15:19:30.810Z,15.26
2022-12-29T15:23:37.308Z,15.02
2022-12-29T15:27:46.944Z,14.88
2022-12-29T15:31:50.178Z,14.72
2022-12-29T15:35:54.716Z,14.48
2022-12-29T15:40:00.597Z,14.36
2022-12-29T15:44:10.894Z,14.26
2022-12-29T15:48:22.658Z,14.18
2022-12-29T15:52:34.611Z,14.06
2022-12-29T15:56:36.931Z,13.97
2022-12-29T16:00:39.395Z,13.81
2022-12-29T16:05:09.335Z,13.68
2022-12-29T16:09:17.227Z,13.61
2022-12-29T16:13:19.304Z,13.52
2022-12-29T16:17:28.014Z,13.43
2022-12-29T16:21:35.283Z,13.29
2022-12-29T16:25:38.556Z,13.22
2022-12-29T16:29:42.056Z,13.22
2022-12-29T16:33:51.132Z,13.23
2022-12-29T16:38:15.244Z,13.23
2022-12-29T16:42:39.489Z,13.23
2022-12-29T16:47:06.148Z,13.23
2022-12-29T16:51:38.734Z,13.21
2022-12-29T16:55:58.535Z,13.19
2022-12-29T17:00:04.820Z,13.10
2022-12-29T17:04:11.755Z,13.03
2022-12-29T17:08:24.223Z,13.05
2022-12-29T17:12:31.141Z,13.01
2022-12-29T17:16:33.625Z,12.99
2022-12-29T17:20:36.229Z,12.94
2022-12-29T17:24:38.643Z,12.71
2022-12-29T17:28:41.639Z,12.53
2022-12-29T17:32:49.929Z,12.39
2022-12-29T17:36:52.160Z,12.19
2022-12-29T17:40:54.661Z,12.07
2022-12-29T17:44:56.962Z,11.98
2022-12-29T17:48:59.188Z,11.97
2022-12-29T17:53:07.643Z,11.91
2022-12-29T17:57:13.724Z,11.92
2022-12-29T18:01:21.889Z,11.90
2022-12-29T18:05:27.391Z,11.86
2022-12-29T18:09:29.623Z,11.77
2022-12-29T18:13:45.579Z,11.72
2022-12-29T18:17:49.362Z,11.58
2022-12-29T18:21:51.486Z,11.49
2022-12-29T18:26:01.820Z,11.39
2022-12-29T18:30:04.696Z,11.23
2022-12-29T18:34:15.615Z,11.26
2022-12-29T18:38:18.520Z,11.19
2022-12-29T18:42:24.552Z,11.12
2022-12-29T18:46:27.031Z,11.22
2022-12-29T18:50:29.367Z,11.24
2022-12-29T18:54:33.851Z,11.28
2022-12-29T18:58:36.247Z,11.11
2022-12-29T19:02:38.599Z,11.11
2022-12-29T19:06:41.262Z,11.11
2022-12-29T19:10:44.618Z,11.27
2022-12-29T19:14:47.057Z,11.42
2022-12-29T19:19:07.863Z,11.46
2022-12-29T19:23:13.662Z,11.54
2022-12-29T19:27:16.267Z,11.60
2022-12-29T19:31:18.530Z,11.70
2022-12-29T19:35:22.991Z,11.70
2022-12-29T19:39:25.579Z,11.77
2022-12-29T19:43:27.991Z,11.72
2022-12-29T19:47:32.072Z,11.71
2022-12-29T19:51:34.732Z,11.65
2022-12-29T19:55:37.317Z,11.60
2022-12-29T19:59:40.885Z,11.63
2022-12-29T20:03:43.466Z,11.64
2022-12-29T20:07:46.149Z,11.42
2022-12-29T20:11:48.436Z,11.22
2022-12-29T20:15:50.721Z,11.23
2022-12-29T20:19:52.970Z,11.22
2022-12-29T20:23:56.713Z,11.14
2022-12-29T20:27:58.933Z,11.12
2022-12-29T20:32:01.260Z,10.96
2022-12-29T20:36:10.780Z,10.86
2022-12-29T20:40:13.217Z,10.71
2022-12-29T20:44:15.416Z,10.50
2022-12-29T20:48:17.823Z,10.48
2022-12-29T20:52:20.130Z,10.54
2022-12-29T20:56:25.879Z,10.41
2022-12-29T21:00:30.850Z,10.27
2022-12-29T21:05:12.825Z,10.34
2022-12-29T21:09:03.280Z,10.17
2022-12-29T21:13:07.676Z,10.11
2022-12-29T21:17:09.931Z,10.00
2022-12-29T21:21:18.331Z,10.06
2022-12-29T21:25:20.484Z,10.05
2022-12-29T21:29:22.693Z,10.10
2022-12-29T21:33:24.982Z,10.17
2022-12-29T21:37:27.112Z,10.03
2022-12-29T21:41:34.866Z,9.82
2022-12-29T21:45:43.921Z,9.84
2022-12-29T21:49:54.948Z,9.95
2022-12-29T21:54:21.259Z,9.64
2022-12-29T21:58:42.044Z,9.63
2022-12-29T22:03:02.883Z,9.61
2022-12-29T22:07:25.854Z,9.63
2022-12-29T22:11:46.891Z,9.47
2022-12-29T22:15:49.042Z,9.35
2022-12-29T22:19:51.342Z,9.37
2022-12-29T22:23:53.547Z,9.37
2022-12-29T22:27:59.436Z,9.51
2022-12-29T22:32:02.221Z,9.44
2022-12-29T22:36:04.713Z,9.53
2022-12-29T22:40:09.997Z,9.57
2022-12-29T22:44:12.156Z,9.59
2022-12-29T22:48:14.473Z,9.66
2022-12-29T22:52:16.916Z,9.70
2022-12-29T22:56:19.237Z,9.74
2022-12-29T23:00:21.411Z,9.68
2022-12-29T23:05:01.693Z,9.65
2022-12-29T23:08:47.472Z,9.70
2022-12-29T23:12:49.891Z,9.51
2022-12-29T23:16:52.106Z,9.58
2022-12-29T23:20:54.419Z,9.60
2022-12-29T23:24:56.684Z,9.62
2022-12-29T23:29:00.769Z,9.70
2022-12-29T23:33:03.001Z,9.61
2022-12-29T23:37:05.302Z,9.64
2022-12-29T23:41:08.543Z,9.45
2022-12-29T23:45:11.632Z,9.38
2022-12-29T23:49:13.909Z,9.45
2022-12-29T23:53:16.230Z,9.33
2022-12-29T23:57:18.512Z,9.37
